sensor_id;sensor_type;location;lat;lon;timestamp;P1;durP1;ratioP1;P2;durP2;ratioP2
72156;SDS011;60035;52.122;5.406;2022-09-02T00:01:57;3.47;;;1.17;;
72156;SDS011;60035;52.122;5.406;2022-09-02T00:04:24;2.17;;;1.05;;
72156;SDS011;60035;52.122;5.406;2022-09-02T00:06:52;2.63;;;1.23;;
72156;SDS011;60035;52.122;5.406;2022-09-02T00:09:22;2.85;;;1.10;;
72156;SDS011;60035;52.122;5.406;2022-09-02T00:11:50;3.17;;;1.20;;
72156;SDS011;60035;52.122;5.406;2022-09-02T00:14:20;3.85;;;1.40;;
72156;SDS011;60035;52.122;5.406;2022-09-02T00:16:49;1.90;;;1.00;;
72156;SDS011;60035;52.122;5.406;2022-09-02T00:19:20;2.33;;;1.27;;
72156;SDS011;60035;52.122;5.406;2022-09-02T00:24:16;3.15;;;1.25;;
72156;SDS011;60035;52.122;5.406;2022-09-02T00:26:43;2.22;;;1.20;;
72156;SDS011;60035;52.122;5.406;2022-09-02T00:29:10;3.53;;;1.08;;
72156;SDS011;60035;52.122;5.406;2022-09-02T00:31:43;1.85;;;1.10;;
72156;SDS011;60035;52.122;5.406;2022-09-02T00:34:11;2.63;;;1.10;;
72156;SDS011;60035;52.122;5.406;2022-09-02T00:36:38;3.40;;;1.02;;
72156;SDS011;60035;52.122;5.406;2022-09-02T00:39:05;1.83;;;1.10;;
72156;SDS011;60035;52.122;5.406;2022-09-02T00:41:33;3.05;;;1.02;;
72156;SDS011;60035;52.122;5.406;2022-09-02T00:44:04;1.70;;;0.98;;
72156;SDS011;60035;52.122;5.406;2022-09-02T00:46:34;2.60;;;1.20;;
72156;SDS011;60035;52.122;5.406;2022-09-02T00:51:56;2.95;;;1.15;;
72156;SDS011;60035;52.122;5.406;2022-09-02T00:54:28;5.03;;;1.20;;
72156;SDS011;60035;52.122;5.406;2022-09-02T00:56:57;2.17;;;1.25;;
72156;SDS011;60035;52.122;5.406;2022-09-02T00:59:29;2.25;;;1.10;;
72156;SDS011;60035;52.122;5.406;2022-09-02T01:02:08;3.33;;;1.40;;
72156;SDS011;60035;52.122;5.406;2022-09-02T01:04:36;3.90;;;1.45;;
72156;SDS011;60035;52.122;5.406;2022-09-02T01:07:03;4.22;;;1.23;;
72156;SDS011;60035;52.122;5.406;2022-09-02T01:09:31;3.78;;;1.10;;
72156;SDS011;60035;52.122;5.406;2022-09-02T01:11:58;2.47;;;1.10;;
72156;SDS011;60035;52.122;5.406;2022-09-02T01:14:28;2.15;;;1.05;;
72156;SDS011;60035;52.122;5.406;2022-09-02T01:16:57;3.15;;;1.10;;
72156;SDS011;60035;52.122;5.406;2022-09-02T01:19:27;2.60;;;1.35;;
72156;SDS011;60035;52.122;5.406;2022-09-02T01:21:57;2.00;;;1.05;;
72156;SDS011;60035;52.122;5.406;2022-09-02T01:24:25;2.28;;;1.20;;
72156;SDS011;60035;52.122;5.406;2022-09-02T01:26:55;4.13;;;1.20;;
72156;SDS011;60035;52.122;5.406;2022-09-02T01:29:23;1.70;;;1.15;;
72156;SDS011;60035;52.122;5.406;2022-09-02T01:31:51;2.38;;;1.20;;
72156;SDS011;60035;52.122;5.406;2022-09-02T01:34:18;2.15;;;1.30;;
72156;SDS011;60035;52.122;5.406;2022-09-02T01:36:44;3.28;;;1.10;;
72156;SDS011;60035;52.122;5.406;2022-09-02T01:39:11;3.40;;;1.23;;
72156;SDS011;60035;52.122;5.406;2022-09-02T01:41:38;3.50;;;1.27;;
72156;SDS011;60035;52.122;5.406;2022-09-02T01:44:05;3.72;;;1.40;;
72156;SDS011;60035;52.122;5.406;2022-09-02T01:46:33;2.03;;;1.15;;
72156;SDS011;60035;52.122;5.406;2022-09-02T01:49:00;2.30;;;1.10;;
72156;SDS011;60035;52.122;5.406;2022-09-02T01:51:26;3.92;;;1.23;;
72156;SDS011;60035;52.122;5.406;2022-09-02T01:53:53;4.22;;;1.10;;
72156;SDS011;60035;52.122;5.406;2022-09-02T01:56:19;5.00;;;1.30;;
72156;SDS011;60035;52.122;5.406;2022-09-02T01:58:46;3.17;;;1.40;;
72156;SDS011;60035;52.122;5.406;2022-09-02T02:01:12;3.05;;;1.30;;
72156;SDS011;60035;52.122;5.406;2022-09-02T02:03:40;2.45;;;1.17;;
72156;SDS011;60035;52.122;5.406;2022-09-02T02:06:10;2.53;;;1.40;;
72156;SDS011;60035;52.122;5.406;2022-09-02T02:08:39;4.57;;;1.50;;
72156;SDS011;60035;52.122;5.406;2022-09-02T02:11:06;1.50;;;1.00;;
72156;SDS011;60035;52.122;5.406;2022-09-02T02:13:32;3.28;;;1.05;;
72156;SDS011;60035;52.122;5.406;2022-09-02T02:15:58;2.38;;;1.30;;
72156;SDS011;60035;52.122;5.406;2022-09-02T02:18:25;3.53;;;1.08;;
72156;SDS011;60035;52.122;5.406;2022-09-02T02:20:52;1.98;;;1.20;;
72156;SDS011;60035;52.122;5.406;2022-09-02T02:23:18;2.67;;;1.33;;
72156;SDS011;60035;52.122;5.406;2022-09-02T02:25:45;3.63;;;1.40;;
72156;SDS011;60035;52.122;5.406;2022-09-02T02:28:12;2.33;;;1.27;;
72156;SDS011;60035;52.122;5.406;2022-09-02T02:30:39;3.17;;;1.35;;
72156;SDS011;60035;52.122;5.406;2022-09-02T02:33:06;3.25;;;1.27;;
72156;SDS011;60035;52.122;5.406;2022-09-02T02:35:32;4.25;;;1.30;;
72156;SDS011;60035;52.122;5.406;2022-09-02T02:38:02;3.92;;;1.35;;
72156;SDS011;60035;52.122;5.406;2022-09-02T02:40:30;2.97;;;1.42;;
72156;SDS011;60035;52.122;5.406;2022-09-02T02:42:57;1.75;;;1.10;;
72156;SDS011;60035;52.122;5.406;2022-09-02T02:45:24;2.47;;;1.15;;
72156;SDS011;60035;52.122;5.406;2022-09-02T02:47:51;2.72;;;1.17;;
72156;SDS011;60035;52.122;5.406;2022-09-02T02:50:19;5.45;;;1.60;;
72156;SDS011;60035;52.122;5.406;2022-09-02T02:52:47;2.95;;;1.10;;
72156;SDS011;60035;52.122;5.406;2022-09-02T02:55:15;2.95;;;1.40;;
72156;SDS011;60035;52.122;5.406;2022-09-02T02:57:42;2.65;;;1.20;;
72156;SDS011;60035;52.122;5.406;2022-09-02T03:00:11;3.25;;;1.40;;
72156;SDS011;60035;52.122;5.406;2022-09-02T03:02:40;3.28;;;1.33;;
72156;SDS011;60035;52.122;5.406;2022-09-02T03:05:07;3.22;;;1.20;;
72156;SDS011;60035;52.122;5.406;2022-09-02T03:07:35;2.55;;;1.30;;
72156;SDS011;60035;52.122;5.406;2022-09-02T03:10:03;2.83;;;1.25;;
72156;SDS011;60035;52.122;5.406;2022-09-02T03:12:33;4.30;;;1.40;;
72156;SDS011;60035;52.122;5.406;2022-09-02T03:15:00;3.65;;;1.20;;
72156;SDS011;60035;52.122;5.406;2022-09-02T03:17:28;5.78;;;1.67;;
72156;SDS011;60035;52.122;5.406;2022-09-02T03:19:55;2.22;;;1.15;;
72156;SDS011;60035;52.122;5.406;2022-09-02T03:22:22;4.30;;;1.30;;
72156;SDS011;60035;52.122;5.406;2022-09-02T03:24:49;3.63;;;2.08;;
72156;SDS011;60035;52.122;5.406;2022-09-02T03:27:15;2.72;;;1.20;;
72156;SDS011;60035;52.122;5.406;2022-09-02T03:29:42;2.30;;;1.13;;
72156;SDS011;60035;52.122;5.406;2022-09-02T03:32:10;3.45;;;1.40;;
72156;SDS011;60035;52.122;5.406;2022-09-02T03:34:39;4.63;;;1.30;;
72156;SDS011;60035;52.122;5.406;2022-09-02T03:37:07;5.10;;;1.40;;
72156;SDS011;60035;52.122;5.406;2022-09-02T03:39:35;4.85;;;1.30;;
72156;SDS011;60035;52.122;5.406;2022-09-02T03:42:02;3.05;;;1.50;;
72156;SDS011;60035;52.122;5.406;2022-09-02T03:44:30;3.45;;;1.52;;
72156;SDS011;60035;52.122;5.406;2022-09-02T03:46:59;3.08;;;1.35;;
72156;SDS011;60035;52.122;5.406;2022-09-02T03:49:26;2.65;;;1.40;;
72156;SDS011;60035;52.122;5.406;2022-09-02T03:51:53;2.25;;;1.25;;
72156;SDS011;60035;52.122;5.406;2022-09-02T03:54:19;4.25;;;1.50;;
72156;SDS011;60035;52.122;5.406;2022-09-02T03:56:46;3.38;;;1.27;;
72156;SDS011;60035;52.122;5.406;2022-09-02T03:59:12;5.15;;;1.40;;
72156;SDS011;60035;52.122;5.406;2022-09-02T04:01:39;3.33;;;1.52;;
72156;SDS011;60035;52.122;5.406;2022-09-02T04:04:06;4.00;;;1.20;;
72156;SDS011;60035;52.122;5.406;2022-09-02T04:06:33;3.08;;;1.40;;
72156;SDS011;60035;52.122;5.406;2022-09-02T04:09:00;4.00;;;1.25;;
72156;SDS011;60035;52.122;5.406;2022-09-02T04:11:27;5.45;;;1.20;;
72156;SDS011;60035;52.122;5.406;2022-09-02T04:13:54;3.38;;;1.60;;
72156;SDS011;60035;52.122;5.406;2022-09-02T04:16:22;2.17;;;1.17;;
72156;SDS011;60035;52.122;5.406;2022-09-02T04:18:55;2.70;;;1.42;;
72156;SDS011;60035;52.122;5.406;2022-09-02T04:21:23;2.92;;;1.30;;
72156;SDS011;60035;52.122;5.406;2022-09-02T04:23:51;4.20;;;1.38;;
72156;SDS011;60035;52.122;5.406;2022-09-02T04:26:18;2.83;;;1.35;;
72156;SDS011;60035;52.122;5.406;2022-09-02T04:28:46;2.70;;;1.40;;
72156;SDS011;60035;52.122;5.406;2022-09-02T04:31:14;2.95;;;1.48;;
72156;SDS011;60035;52.122;5.406;2022-09-02T04:33:43;4.32;;;1.15;;
72156;SDS011;60035;52.122;5.406;2022-09-02T04:36:11;2.97;;;1.42;;
72156;SDS011;60035;52.122;5.406;2022-09-02T04:38:40;2.03;;;1.33;;
72156;SDS011;60035;52.122;5.406;2022-09-02T04:41:11;4.15;;;1.50;;
72156;SDS011;60035;52.122;5.406;2022-09-02T04:43:39;3.17;;;1.40;;
72156;SDS011;60035;52.122;5.406;2022-09-02T04:46:07;5.07;;;1.50;;
72156;SDS011;60035;52.122;5.406;2022-09-02T04:48:36;3.67;;;1.35;;
72156;SDS011;60035;52.122;5.406;2022-09-02T04:51:04;6.55;;;1.48;;
72156;SDS011;60035;52.122;5.406;2022-09-02T04:53:31;2.95;;;1.30;;
72156;SDS011;60035;52.122;5.406;2022-09-02T04:56:04;2.40;;;1.40;;
72156;SDS011;60035;52.122;5.406;2022-09-02T04:58:33;3.10;;;1.30;;
72156;SDS011;60035;52.122;5.406;2022-09-02T05:01:06;3.05;;;1.60;;
72156;SDS011;60035;52.122;5.406;2022-09-02T05:03:35;3.30;;;1.35;;
72156;SDS011;60035;52.122;5.406;2022-09-02T05:06:06;4.82;;;1.73;;
72156;SDS011;60035;52.122;5.406;2022-09-02T05:08:34;5.65;;;1.67;;
72156;SDS011;60035;52.122;5.406;2022-09-02T05:11:09;4.22;;;1.50;;
72156;SDS011;60035;52.122;5.406;2022-09-02T05:13:39;5.63;;;1.60;;
72156;SDS011;60035;52.122;5.406;2022-09-02T05:16:06;2.97;;;1.30;;
72156;SDS011;60035;52.122;5.406;2022-09-02T05:18:33;5.60;;;1.70;;
72156;SDS011;60035;52.122;5.406;2022-09-02T05:21:03;4.43;;;1.50;;
72156;SDS011;60035;52.122;5.406;2022-09-02T05:23:30;3.92;;;1.60;;
72156;SDS011;60035;52.122;5.406;2022-09-02T05:25:57;4.25;;;1.50;;
72156;SDS011;60035;52.122;5.406;2022-09-02T05:28:24;5.18;;;1.70;;
72156;SDS011;60035;52.122;5.406;2022-09-02T05:30:50;4.38;;;1.33;;
72156;SDS011;60035;52.122;5.406;2022-09-02T05:33:16;5.13;;;1.15;;
72156;SDS011;60035;52.122;5.406;2022-09-02T05:35:43;4.55;;;1.60;;
72156;SDS011;60035;52.122;5.406;2022-09-02T05:38:12;3.50;;;1.35;;
72156;SDS011;60035;52.122;5.406;2022-09-02T05:40:39;5.47;;;1.70;;
72156;SDS011;60035;52.122;5.406;2022-09-02T05:43:06;4.15;;;1.50;;
72156;SDS011;60035;52.122;5.406;2022-09-02T05:45:32;4.15;;;1.50;;
72156;SDS011;60035;52.122;5.406;2022-09-02T05:47:59;4.85;;;1.67;;
72156;SDS011;60035;52.122;5.406;2022-09-02T05:50:46;2.83;;;1.50;;
72156;SDS011;60035;52.122;5.406;2022-09-02T05:55:51;2.75;;;1.40;;
72156;SDS011;60035;52.122;5.406;2022-09-02T05:58:18;4.40;;;1.55;;
72156;SDS011;60035;52.122;5.406;2022-09-02T06:00:45;6.88;;;1.30;;
72156;SDS011;60035;52.122;5.406;2022-09-02T06:03:11;4.45;;;1.38;;
72156;SDS011;60035;52.122;5.406;2022-09-02T06:05:38;4.93;;;1.85;;
72156;SDS011;60035;52.122;5.406;2022-09-02T06:08:06;4.63;;;1.55;;
72156;SDS011;60035;52.122;5.406;2022-09-02T06:10:33;3.75;;;1.20;;
72156;SDS011;60035;52.122;5.406;2022-09-02T06:12:59;3.50;;;1.60;;
72156;SDS011;60035;52.122;5.406;2022-09-02T06:15:26;3.22;;;1.10;;
72156;SDS011;60035;52.122;5.406;2022-09-02T06:17:56;2.92;;;1.20;;
72156;SDS011;60035;52.122;5.406;2022-09-02T06:20:24;3.42;;;1.50;;
72156;SDS011;60035;52.122;5.406;2022-09-02T06:22:54;4.03;;;1.35;;
72156;SDS011;60035;52.122;5.406;2022-09-02T06:25:20;5.45;;;1.35;;
72156;SDS011;60035;52.122;5.406;2022-09-02T06:27:47;5.45;;;1.50;;
72156;SDS011;60035;52.122;5.406;2022-09-02T06:30:13;6.93;;;1.63;;
72156;SDS011;60035;52.122;5.406;2022-09-02T06:32:40;3.28;;;1.77;;
72156;SDS011;60035;52.122;5.406;2022-09-02T06:35:06;4.00;;;1.30;;
72156;SDS011;60035;52.122;5.406;2022-09-02T06:37:35;2.97;;;1.33;;
72156;SDS011;60035;52.122;5.406;2022-09-02T06:40:02;4.25;;;1.40;;
72156;SDS011;60035;52.122;5.406;2022-09-02T06:42:30;4.53;;;2.22;;
72156;SDS011;60035;52.122;5.406;2022-09-02T06:44:56;3.75;;;1.40;;
72156;SDS011;60035;52.122;5.406;2022-09-02T06:47:23;4.20;;;1.30;;
72156;SDS011;60035;52.122;5.406;2022-09-02T06:49:49;4.85;;;1.23;;
72156;SDS011;60035;52.122;5.406;2022-09-02T06:52:16;3.40;;;0.93;;
72156;SDS011;60035;52.122;5.406;2022-09-02T06:54:42;3.95;;;1.30;;
72156;SDS011;60035;52.122;5.406;2022-09-02T06:57:09;3.38;;;1.20;;
72156;SDS011;60035;52.122;5.406;2022-09-02T06:59:36;3.05;;;1.23;;
72156;SDS011;60035;52.122;5.406;2022-09-02T07:02:03;5.30;;;1.30;;
72156;SDS011;60035;52.122;5.406;2022-09-02T07:04:30;2.95;;;1.35;;
72156;SDS011;60035;52.122;5.406;2022-09-02T07:07:21;3.28;;;1.13;;
72156;SDS011;60035;52.122;5.406;2022-09-02T07:09:47;4.30;;;1.33;;
72156;SDS011;60035;52.122;5.406;2022-09-02T07:12:14;3.42;;;1.20;;
72156;SDS011;60035;52.122;5.406;2022-09-02T07:14:42;5.75;;;1.38;;
72156;SDS011;60035;52.122;5.406;2022-09-02T07:17:12;3.42;;;1.45;;
72156;SDS011;60035;52.122;5.406;2022-09-02T07:19:43;5.20;;;1.10;;
72156;SDS011;60035;52.122;5.406;2022-09-02T07:22:10;4.55;;;1.40;;
72156;SDS011;60035;52.122;5.406;2022-09-02T07:24:36;5.07;;;1.40;;
72156;SDS011;60035;52.122;5.406;2022-09-02T07:27:03;3.47;;;1.08;;
72156;SDS011;60035;52.122;5.406;2022-09-02T07:29:31;3.85;;;1.52;;
72156;SDS011;60035;52.122;5.406;2022-09-02T07:31:57;3.65;;;1.30;;
72156;SDS011;60035;52.122;5.406;2022-09-02T07:34:24;4.63;;;1.40;;
72156;SDS011;60035;52.122;5.406;2022-09-02T07:36:51;7.15;;;1.42;;
72156;SDS011;60035;52.122;5.406;2022-09-02T07:39:18;3.15;;;1.75;;
72156;SDS011;60035;52.122;5.406;2022-09-02T07:41:48;5.22;;;1.40;;
72156;SDS011;60035;52.122;5.406;2022-09-02T07:44:16;3.15;;;1.52;;
72156;SDS011;60035;52.122;5.406;2022-09-02T07:46:44;7.38;;;1.45;;
72156;SDS011;60035;52.122;5.406;2022-09-02T07:49:12;3.28;;;1.27;;
72156;SDS011;60035;52.122;5.406;2022-09-02T07:51:40;4.95;;;1.27;;
72156;SDS011;60035;52.122;5.406;2022-09-02T07:54:09;6.30;;;1.45;;
72156;SDS011;60035;52.122;5.406;2022-09-02T07:56:38;5.03;;;1.15;;
72156;SDS011;60035;52.122;5.406;2022-09-02T07:59:05;10.85;;;1.80;;
72156;SDS011;60035;52.122;5.406;2022-09-02T08:01:32;11.38;;;1.75;;
72156;SDS011;60035;52.122;5.406;2022-09-02T08:03:59;12.50;;;1.50;;
72156;SDS011;60035;52.122;5.406;2022-09-02T08:06:31;13.85;;;2.08;;
72156;SDS011;60035;52.122;5.406;2022-09-02T08:09:01;5.40;;;1.50;;
72156;SDS011;60035;52.122;5.406;2022-09-02T08:11:33;6.07;;;1.80;;
72156;SDS011;60035;52.122;5.406;2022-09-02T08:14:05;8.13;;;1.30;;
72156;SDS011;60035;52.122;5.406;2022-09-02T08:16:35;6.88;;;1.67;;
72156;SDS011;60035;52.122;5.406;2022-09-02T08:19:02;5.90;;;1.50;;
72156;SDS011;60035;52.122;5.406;2022-09-02T08:21:29;5.75;;;1.98;;
72156;SDS011;60035;52.122;5.406;2022-09-02T08:23:55;6.57;;;1.50;;
72156;SDS011;60035;52.122;5.406;2022-09-02T08:26:23;5.20;;;2.05;;
72156;SDS011;60035;52.122;5.406;2022-09-02T08:28:51;7.40;;;1.70;;
72156;SDS011;60035;52.122;5.406;2022-09-02T08:31:18;4.32;;;1.50;;
72156;SDS011;60035;52.122;5.406;2022-09-02T08:33:44;7.50;;;1.65;;
72156;SDS011;60035;52.122;5.406;2022-09-02T08:36:11;4.70;;;2.30;;
72156;SDS011;60035;52.122;5.406;2022-09-02T08:38:40;7.45;;;2.00;;
72156;SDS011;60035;52.122;5.406;2022-09-02T08:41:24;6.25;;;1.83;;
72156;SDS011;60035;52.122;5.406;2022-09-02T08:43:53;6.18;;;1.80;;
72156;SDS011;60035;52.122;5.406;2022-09-02T08:46:23;5.47;;;1.98;;
72156;SDS011;60035;52.122;5.406;2022-09-02T08:48:54;4.70;;;1.75;;
72156;SDS011;60035;52.122;5.406;2022-09-02T08:51:31;4.18;;;1.52;;
72156;SDS011;60035;52.122;5.406;2022-09-02T08:54:04;8.20;;;1.80;;
72156;SDS011;60035;52.122;5.406;2022-09-02T08:56:34;8.07;;;1.95;;
72156;SDS011;60035;52.122;5.406;2022-09-02T08:59:01;4.40;;;1.65;;
72156;SDS011;60035;52.122;5.406;2022-09-02T09:15:02;5.43;;;1.90;;
72156;SDS011;60035;52.122;5.406;2022-09-02T09:18:04;4.35;;;1.50;;
72156;SDS011;60035;52.122;5.406;2022-09-02T09:20:28;5.50;;;1.60;;
72156;SDS011;60035;52.122;5.406;2022-09-02T09:23:01;6.20;;;2.28;;
72156;SDS011;60035;52.122;5.406;2022-09-02T09:25:41;6.55;;;1.92;;
72156;SDS011;60035;52.122;5.406;2022-09-02T09:28:12;6.10;;;2.00;;
72156;SDS011;60035;52.122;5.406;2022-09-02T09:30:38;9.02;;;2.17;;
72156;SDS011;60035;52.122;5.406;2022-09-02T09:33:05;8.50;;;1.90;;
72156;SDS011;60035;52.122;5.406;2022-09-02T09:35:45;6.25;;;1.95;;
72156;SDS011;60035;52.122;5.406;2022-09-02T09:38:14;7.45;;;2.00;;
72156;SDS011;60035;52.122;5.406;2022-09-02T09:40:40;6.78;;;1.92;;
72156;SDS011;60035;52.122;5.406;2022-09-02T09:45:49;4.80;;;1.88;;
72156;SDS011;60035;52.122;5.406;2022-09-02T09:53:21;5.05;;;1.95;;
72156;SDS011;60035;52.122;5.406;2022-09-02T09:56:01;6.88;;;1.98;;
72156;SDS011;60035;52.122;5.406;2022-09-02T10:01:13;7.18;;;2.05;;
72156;SDS011;60035;52.122;5.406;2022-09-02T10:03:54;8.77;;;2.50;;
72156;SDS011;60035;52.122;5.406;2022-09-02T10:06:51;5.20;;;1.92;;
72156;SDS011;60035;52.122;5.406;2022-09-02T10:11:58;6.65;;;2.38;;
72156;SDS011;60035;52.122;5.406;2022-09-02T10:14:37;6.45;;;2.00;;
72156;SDS011;60035;52.122;5.406;2022-09-02T10:36:12;8.52;;;2.28;;
72156;SDS011;60035;52.122;5.406;2022-09-02T10:38:50;5.13;;;2.42;;
72156;SDS011;60035;52.122;5.406;2022-09-02T10:47:41;4.28;;;2.17;;
72156;SDS011;60035;52.122;5.406;2022-09-02T10:50:04;4.45;;;2.13;;
72156;SDS011;60035;52.122;5.406;2022-09-02T10:52:55;4.32;;;2.00;;
72156;SDS011;60035;52.122;5.406;2022-09-02T10:58:22;5.70;;;2.20;;
72156;SDS011;60035;52.122;5.406;2022-09-02T11:01:11;5.97;;;2.45;;
72156;SDS011;60035;52.122;5.406;2022-09-02T11:03:54;7.18;;;2.38;;
72156;SDS011;60035;52.122;5.406;2022-09-02T11:06:29;5.45;;;2.08;;
72156;SDS011;60035;52.122;5.406;2022-09-02T11:12:10;5.70;;;2.00;;
72156;SDS011;60035;52.122;5.406;2022-09-02T11:17:24;4.35;;;1.80;;
72156;SDS011;60035;52.122;5.406;2022-09-02T11:23:25;4.68;;;1.95;;
72156;SDS011;60035;52.122;5.406;2022-09-02T11:28:37;4.82;;;1.85;;
72156;SDS011;60035;52.122;5.406;2022-09-02T11:34:10;5.22;;;1.92;;
72156;SDS011;60035;52.122;5.406;2022-09-02T11:36:38;5.88;;;1.92;;
72156;SDS011;60035;52.122;5.406;2022-09-02T11:39:08;5.80;;;1.73;;
72156;SDS011;60035;52.122;5.406;2022-09-02T11:41:56;4.68;;;2.00;;
72156;SDS011;60035;52.122;5.406;2022-09-02T11:53:14;3.90;;;1.90;;
72156;SDS011;60035;52.122;5.406;2022-09-02T11:55:50;4.00;;;1.85;;
72156;SDS011;60035;52.122;5.406;2022-09-02T11:58:40;7.38;;;2.17;;
72156;SDS011;60035;52.122;5.406;2022-09-02T12:09:45;5.10;;;2.00;;
72156;SDS011;60035;52.122;5.406;2022-09-02T12:17:32;5.60;;;1.70;;
72156;SDS011;60035;52.122;5.406;2022-09-02T12:20:05;5.55;;;1.70;;
72156;SDS011;60035;52.122;5.406;2022-09-02T12:22:35;6.10;;;2.00;;
72156;SDS011;60035;52.122;5.406;2022-09-02T12:33:31;5.60;;;1.92;;
72156;SDS011;60035;52.122;5.406;2022-09-02T12:35:59;5.68;;;2.47;;
72156;SDS011;60035;52.122;5.406;2022-09-02T12:43:25;9.05;;;2.17;;
72156;SDS011;60035;52.122;5.406;2022-09-02T12:46:05;4.45;;;1.92;;
72156;SDS011;60035;52.122;5.406;2022-09-02T12:48:53;5.47;;;1.80;;
72156;SDS011;60035;52.122;5.406;2022-09-02T12:54:23;3.20;;;2.17;;
72156;SDS011;60035;52.122;5.406;2022-09-02T12:57:00;5.65;;;2.13;;
72156;SDS011;60035;52.122;5.406;2022-09-02T12:59:37;4.13;;;1.83;;
72156;SDS011;60035;52.122;5.406;2022-09-02T13:04:54;5.25;;;2.30;;
72156;SDS011;60035;52.122;5.406;2022-09-02T13:15:49;4.15;;;2.15;;
72156;SDS011;60035;52.122;5.406;2022-09-02T13:26:43;4.50;;;1.80;;
72156;SDS011;60035;52.122;5.406;2022-09-02T13:32:31;3.67;;;1.70;;
72156;SDS011;60035;52.122;5.406;2022-09-02T13:35:00;2.95;;;1.77;;
72156;SDS011;60035;52.122;5.406;2022-09-02T13:37:37;4.82;;;2.25;;
72156;SDS011;60035;52.122;5.406;2022-09-02T13:42:56;4.25;;;2.20;;
72156;SDS011;60035;52.122;5.406;2022-09-02T13:45:27;4.05;;;1.95;;
72156;SDS011;60035;52.122;5.406;2022-09-02T13:47:58;3.28;;;1.90;;
72156;SDS011;60035;52.122;5.406;2022-09-02T13:50:28;3.58;;;2.05;;
72156;SDS011;60035;52.122;5.406;2022-09-02T13:52:59;4.20;;;1.70;;
72156;SDS011;60035;52.122;5.406;2022-09-02T13:55:49;4.22;;;1.70;;
72156;SDS011;60035;52.122;5.406;2022-09-02T13:58:29;4.45;;;1.90;;
72156;SDS011;60035;52.122;5.406;2022-09-02T14:01:16;4.55;;;1.63;;
72156;SDS011;60035;52.122;5.406;2022-09-02T14:03:49;3.42;;;1.80;;
72156;SDS011;60035;52.122;5.406;2022-09-02T14:06:19;4.25;;;1.85;;
72156;SDS011;60035;52.122;5.406;2022-09-02T14:08:52;4.50;;;1.65;;
72156;SDS011;60035;52.122;5.406;2022-09-02T14:11:22;5.35;;;2.00;;
72156;SDS011;60035;52.122;5.406;2022-09-02T14:13:49;4.65;;;2.00;;
72156;SDS011;60035;52.122;5.406;2022-09-02T14:16:26;3.85;;;2.00;;
72156;SDS011;60035;52.122;5.406;2022-09-02T14:19:02;7.57;;;2.00;;
72156;SDS011;60035;52.122;5.406;2022-09-02T14:21:34;11.23;;;2.00;;
72156;SDS011;60035;52.122;5.406;2022-09-02T14:24:02;5.53;;;1.80;;
72156;SDS011;60035;52.122;5.406;2022-09-02T14:29:00;3.70;;;1.70;;
72156;SDS011;60035;52.122;5.406;2022-09-02T14:31:28;7.28;;;1.98;;
72156;SDS011;60035;52.122;5.406;2022-09-02T14:33:56;5.70;;;2.17;;
72156;SDS011;60035;52.122;5.406;2022-09-02T14:38:51;4.78;;;2.20;;
72156;SDS011;60035;52.122;5.406;2022-09-02T14:41:27;4.22;;;2.00;;
72156;SDS011;60035;52.122;5.406;2022-09-02T14:43:59;6.03;;;2.03;;
72156;SDS011;60035;52.122;5.406;2022-09-02T14:46:46;5.55;;;2.28;;
72156;SDS011;60035;52.122;5.406;2022-09-02T14:49:57;4.85;;;2.20;;
72156;SDS011;60035;52.122;5.406;2022-09-02T14:54:48;6.80;;;2.30;;
72156;SDS011;60035;52.122;5.406;2022-09-02T14:57:26;3.83;;;2.40;;
72156;SDS011;60035;52.122;5.406;2022-09-02T15:00:03;6.50;;;2.30;;
72156;SDS011;60035;52.122;5.406;2022-09-02T15:02:40;4.60;;;1.95;;
72156;SDS011;60035;52.122;5.406;2022-09-02T15:05:10;5.70;;;1.95;;
72156;SDS011;60035;52.122;5.406;2022-09-02T15:07:41;3.38;;;1.90;;
72156;SDS011;60035;52.122;5.406;2022-09-02T15:10:08;6.63;;;2.10;;
72156;SDS011;60035;52.122;5.406;2022-09-02T15:12:40;5.15;;;2.00;;
72156;SDS011;60035;52.122;5.406;2022-09-02T15:15:11;3.47;;;2.20;;
72156;SDS011;60035;52.122;5.406;2022-09-02T15:17:38;3.80;;;2.00;;
72156;SDS011;60035;52.122;5.406;2022-09-02T15:20:04;3.10;;;1.95;;
72156;SDS011;60035;52.122;5.406;2022-09-02T15:22:36;6.53;;;2.00;;
72156;SDS011;60035;52.122;5.406;2022-09-02T15:25:04;5.20;;;2.25;;
72156;SDS011;60035;52.122;5.406;2022-09-02T15:30:00;5.97;;;2.47;;
72156;SDS011;60035;52.122;5.406;2022-09-02T15:32:26;6.25;;;2.70;;
72156;SDS011;60035;52.122;5.406;2022-09-02T15:34:53;4.65;;;2.10;;
72156;SDS011;60035;52.122;5.406;2022-09-02T15:37:20;4.65;;;2.38;;
72156;SDS011;60035;52.122;5.406;2022-09-02T15:39:47;5.45;;;2.50;;
72156;SDS011;60035;52.122;5.406;2022-09-02T15:42:13;5.25;;;2.30;;
72156;SDS011;60035;52.122;5.406;2022-09-02T15:44:40;5.30;;;2.20;;
72156;SDS011;60035;52.122;5.406;2022-09-02T15:47:07;6.85;;;2.22;;
72156;SDS011;60035;52.122;5.406;2022-09-02T15:49:33;4.78;;;2.03;;
72156;SDS011;60035;52.122;5.406;2022-09-02T15:51:59;4.35;;;2.00;;
72156;SDS011;60035;52.122;5.406;2022-09-02T15:54:28;6.45;;;2.28;;
72156;SDS011;60035;52.122;5.406;2022-09-02T15:56:57;5.65;;;2.50;;
72156;SDS011;60035;52.122;5.406;2022-09-02T15:59:24;4.47;;;2.03;;
72156;SDS011;60035;52.122;5.406;2022-09-02T16:01:52;4.30;;;2.13;;
72156;SDS011;60035;52.122;5.406;2022-09-02T16:04:21;4.55;;;2.30;;
72156;SDS011;60035;52.122;5.406;2022-09-02T16:06:49;6.55;;;2.15;;
72156;SDS011;60035;52.122;5.406;2022-09-02T16:09:19;5.40;;;2.25;;
72156;SDS011;60035;52.122;5.406;2022-09-02T16:11:47;5.85;;;1.92;;
72156;SDS011;60035;52.122;5.406;2022-09-02T16:14:16;5.72;;;2.03;;
72156;SDS011;60035;52.122;5.406;2022-09-02T16:16:47;5.05;;;2.03;;
72156;SDS011;60035;52.122;5.406;2022-09-02T16:19:14;5.65;;;2.20;;
72156;SDS011;60035;52.122;5.406;2022-09-02T16:21:41;6.78;;;2.30;;
72156;SDS011;60035;52.122;5.406;2022-09-02T16:24:07;6.50;;;2.30;;
72156;SDS011;60035;52.122;5.406;2022-09-02T16:26:36;5.40;;;2.20;;
72156;SDS011;60035;52.122;5.406;2022-09-02T16:29:04;5.55;;;2.13;;
72156;SDS011;60035;52.122;5.406;2022-09-02T16:31:33;7.20;;;2.50;;
72156;SDS011;60035;52.122;5.406;2022-09-02T16:34:02;6.93;;;2.38;;
72156;SDS011;60035;52.122;5.406;2022-09-02T16:36:37;6.03;;;2.83;;
72156;SDS011;60035;52.122;5.406;2022-09-02T16:39:05;4.22;;;2.30;;
72156;SDS011;60035;52.122;5.406;2022-09-02T16:44:03;3.80;;;1.92;;
72156;SDS011;60035;52.122;5.406;2022-09-02T16:46:34;4.10;;;2.30;;
72156;SDS011;60035;52.122;5.406;2022-09-02T16:49:02;5.70;;;2.10;;
72156;SDS011;60035;52.122;5.406;2022-09-02T16:51:29;4.75;;;1.90;;
72156;SDS011;60035;52.122;5.406;2022-09-02T16:53:58;5.30;;;2.15;;
72156;SDS011;60035;52.122;5.406;2022-09-02T16:56:26;3.97;;;2.05;;
72156;SDS011;60035;52.122;5.406;2022-09-02T16:58:58;7.00;;;2.20;;
72156;SDS011;60035;52.122;5.406;2022-09-02T17:01:26;7.03;;;2.22;;
72156;SDS011;60035;52.122;5.406;2022-09-02T17:03:57;6.07;;;2.30;;
72156;SDS011;60035;52.122;5.406;2022-09-02T17:08:55;6.30;;;2.25;;
72156;SDS011;60035;52.122;5.406;2022-09-02T17:11:23;4.93;;;2.22;;
72156;SDS011;60035;52.122;5.406;2022-09-02T17:13:55;5.22;;;1.90;;
72156;SDS011;60035;52.122;5.406;2022-09-02T17:16:25;6.05;;;2.50;;
72156;SDS011;60035;52.122;5.406;2022-09-02T17:18:56;6.35;;;2.15;;
72156;SDS011;60035;52.122;5.406;2022-09-02T17:23:55;6.05;;;2.70;;
72156;SDS011;60035;52.122;5.406;2022-09-02T17:26:23;3.83;;;2.25;;
72156;SDS011;60035;52.122;5.406;2022-09-02T17:28:52;4.72;;;2.20;;
72156;SDS011;60035;52.122;5.406;2022-09-02T17:31:22;5.63;;;2.20;;
72156;SDS011;60035;52.122;5.406;2022-09-02T17:36:18;4.47;;;1.92;;
72156;SDS011;60035;52.122;5.406;2022-09-02T17:38:45;5.43;;;2.25;;
72156;SDS011;60035;52.122;5.406;2022-09-02T17:41:12;4.93;;;2.10;;
72156;SDS011;60035;52.122;5.406;2022-09-02T17:43:58;5.93;;;1.90;;
72156;SDS011;60035;52.122;5.406;2022-09-02T17:46:25;4.35;;;1.80;;